createdAt,value
2023-02-14T00:02:13.412Z,74.64
2023-02-14T00:05:02.042Z,74.67
2023-02-14T00:07:50.641Z,74.73
2023-02-14T00:10:39.299Z,74.75
2023-02-14T00:13:27.961Z,74.48
2023-02-14T00:16:05.890Z,74.46
2023-02-14T00:19:03.696Z,74.46
2023-02-14T00:21:52.356Z,74.15
2023-02-14T00:24:40.985Z,73.98
2023-02-14T00:27:29.632Z,74.02
2023-02-14T00:30:18.332Z,73.74
2023-02-14T00:33:07.010Z,73.66
2023-02-14T00:35:55.646Z,73.50
2023-02-14T00:38:44.300Z,73.49
2023-02-14T00:41:33.600Z,73.47
2023-02-14T00:44:22.559Z,73.30
2023-02-14T00:46:54.266Z,73.32
2023-02-14T00:49:42.982Z,73.35
2023-02-14T00:52:31.687Z,73.01
2023-02-14T00:55:20.484Z,73.27
2023-02-14T00:58:09.086Z,73.16
2023-02-14T01:00:58.218Z,73.20
2023-02-14T01:03:47.689Z,73.28
2023-02-14T01:06:36.410Z,73.24
2023-02-14T01:09:25.045Z,73.30
2023-02-14T01:12:13.637Z,73.26
2023-02-14T01:15:02.544Z,73.21
2023-02-14T01:17:51.207Z,73.29
2023-02-14T01:20:39.863Z,73.15
2023-02-14T01:23:28.477Z,73.12
2023-02-14T01:26:18.361Z,73.21
2023-02-14T01:29:07.052Z,73.23
2023-02-14T01:31:55.733Z,73.32
2023-02-14T01:34:44.291Z,73.38
2023-02-14T01:37:19.900Z,73.38
2023-02-14T01:40:12.420Z,73.44
2023-02-14T01:43:00.974Z,73.49
2023-02-14T01:45:49.647Z,73.41
2023-02-14T01:48:38.338Z,73.65
2023-02-14T01:51:28.110Z,73.59
2023-02-14T01:54:18.472Z,73.74
2023-02-14T01:57:11.589Z,73.77
2023-02-14T02:00:16.661Z,73.66
2023-02-14T02:03:06.601Z,73.72
2023-02-14T02:05:59.420Z,73.57
2023-02-14T02:08:59.344Z,73.67
2023-02-14T02:11:48.540Z,73.75
2023-02-14T02:14:37.618Z,73.84
2023-02-14T02:17:32.798Z,73.69
2023-02-14T02:20:48.549Z,73.65
2023-02-14T02:23:50.826Z,73.69
2023-02-14T02:27:13.992Z,73.68
2023-02-14T02:30:42.741Z,73.61
2023-02-14T02:34:06.544Z,73.65
2023-02-14T02:37:10.184Z,73.52
2023-02-14T02:40:10.487Z,73.46
2023-02-14T02:43:10.913Z,73.47
2023-02-14T02:46:21.752Z,73.53
2023-02-14T02:49:39.036Z,73.72
2023-02-14T02:52:57.246Z,73.68
2023-02-14T02:56:10.644Z,73.83
2023-02-14T02:59:04.209Z,73.79
2023-02-14T03:02:05.451Z,73.93
2023-02-14T03:04:57.636Z,73.91
2023-02-14T03:07:49.168Z,73.67
2023-02-14T03:10:39.770Z,73.76
2023-02-14T03:13:43.102Z,73.70
2023-02-14T03:16:40.736Z,73.67
2023-02-14T03:20:07.259Z,73.81
2023-02-14T03:23:04.134Z,73.84
2023-02-14T03:26:03.696Z,73.78
2023-02-14T03:28:59.850Z,73.65
2023-02-14T03:31:59.750Z,73.73
2023-02-14T03:34:58.857Z,73.60
2023-02-14T03:37:53.351Z,73.68
2023-02-14T03:40:48.688Z,73.68
2023-02-14T03:43:41.997Z,73.53
2023-02-14T03:46:35.785Z,73.58
2023-02-14T03:49:29.752Z,73.50
2023-02-14T03:52:19.533Z,73.45
2023-02-14T03:55:09.905Z,73.41
2023-02-14T03:58:06.164Z,73.55
2023-02-14T04:01:00.321Z,73.47
2023-02-14T04:03:50.046Z,73.55
2023-02-14T04:06:38.674Z,73.61
2023-02-14T04:09:27.311Z,73.46
2023-02-14T04:12:21.662Z,73.49
2023-02-14T04:15:13.439Z,73.50
2023-02-14T04:18:20.327Z,73.45
2023-02-14T04:21:09.865Z,73.48
2023-02-14T04:23:58.467Z,73.37
2023-02-14T04:27:09.411Z,73.21
2023-02-14T04:29:58.326Z,73.21
2023-02-14T04:32:47.125Z,73.13
2023-02-14T04:35:35.847Z,73.12
2023-02-14T04:38:24.671Z,73.09
2023-02-14T04:41:13.303Z,73.17
2023-02-14T04:44:01.919Z,73.02
2023-02-14T04:46:51.122Z,73.01
2023-02-14T04:49:39.765Z,72.93
2023-02-14T04:52:28.533Z,72.89
2023-02-14T04:55:17.391Z,72.82
2023-02-14T04:58:06.105Z,72.95
2023-02-14T05:00:54.836Z,72.88
2023-02-14T05:03:43.564Z,72.93
2023-02-14T05:06:33.024Z,72.80
2023-02-14T05:09:21.983Z,72.78
2023-02-14T05:12:10.662Z,72.45
2023-02-14T05:14:59.294Z,72.49
2023-02-14T05:17:47.958Z,72.60
2023-02-14T05:20:36.578Z,72.63
2023-02-14T05:23:12.856Z,72.57
2023-02-14T05:26:01.476Z,72.66
2023-02-14T05:28:50.117Z,72.66
2023-02-14T05:31:38.836Z,72.57
2023-02-14T05:34:28.480Z,72.62
2023-02-14T05:37:17.035Z,72.53
2023-02-14T05:39:48.421Z,72.47
2023-02-14T05:42:36.979Z,72.53
2023-02-14T05:45:25.821Z,72.51
2023-02-14T05:48:14.963Z,72.53
2023-02-14T05:51:06.529Z,72.54
2023-02-14T05:53:57.118Z,72.51
2023-02-14T05:56:45.702Z,72.50
2023-02-14T05:59:34.399Z,72.66
2023-02-14T06:02:23.260Z,72.66
2023-02-14T06:05:12.411Z,72.66
2023-02-14T06:08:01.241Z,72.63
2023-02-14T06:10:49.839Z,72.50
2023-02-14T06:13:40.778Z,72.59
2023-02-14T06:16:29.483Z,72.70
2023-02-14T06:19:15.380Z,72.57
2023-02-14T06:22:04.296Z,72.49
2023-02-14T06:24:36.273Z,72.59
2023-02-14T06:27:25.010Z,72.54
2023-02-14T06:29:53.554Z,72.70
2023-02-14T06:32:42.197Z,72.56
2023-02-14T06:35:30.969Z,72.57
2023-02-14T06:38:19.671Z,72.58
2023-02-14T06:40:51.218Z,72.45
2023-02-14T06:43:28.369Z,72.41
2023-02-14T06:46:18.154Z,72.50
2023-02-14T06:49:06.834Z,72.60
2023-02-14T06:51:55.416Z,72.70
2023-02-14T06:54:44.006Z,72.76
2023-02-14T06:57:32.595Z,72.81
2023-02-14T07:00:05.929Z,72.84
2023-02-14T07:02:54.589Z,72.83
2023-02-14T07:05:45.259Z,72.82
2023-02-14T07:08:33.834Z,72.84
2023-02-14T07:11:22.467Z,72.72
2023-02-14T07:14:13.339Z,72.76
2023-02-14T07:17:01.946Z,72.88
2023-02-14T07:19:50.600Z,72.74
2023-02-14T07:22:39.587Z,72.85
2023-02-14T07:25:28.218Z,72.83
2023-02-14T07:27:59.555Z,72.70
2023-02-14T07:30:48.369Z,72.57
2023-02-14T07:33:37.122Z,72.57
2023-02-14T07:36:25.781Z,72.56
2023-02-14T07:39:14.522Z,72.49
2023-02-14T07:42:03.233Z,72.49
2023-02-14T07:44:51.886Z,72.61
2023-02-14T07:47:40.496Z,72.64
2023-02-14T07:50:30.440Z,72.52
2023-02-14T07:53:19.074Z,72.64
2023-02-14T07:56:07.920Z,72.69
2023-02-14T07:58:39.364Z,72.64
2023-02-14T08:01:28.121Z,72.54
2023-02-14T08:04:17.118Z,72.42
2023-02-14T08:07:05.743Z,72.41
2023-02-14T08:09:54.388Z,72.51
2023-02-14T08:13:01.393Z,72.60
2023-02-14T08:16:05.198Z,72.61
2023-02-14T08:18:37.598Z,72.51
2023-02-14T08:21:26.366Z,72.39
2023-02-14T08:23:57.749Z,72.39
2023-02-14T08:26:46.403Z,72.37
2023-02-14T08:29:35.084Z,72.14
2023-02-14T08:32:23.931Z,72.11
2023-02-14T08:35:12.684Z,72.18
2023-02-14T08:38:01.848Z,72.07
2023-02-14T08:40:50.415Z,72.12
2023-02-14T08:43:39.237Z,72.13
2023-02-14T08:46:28.070Z,72.17
2023-02-14T08:49:16.686Z,72.11
2023-02-14T08:52:05.769Z,72.20
2023-02-14T08:54:54.434Z,72.20
2023-02-14T08:57:43.060Z,72.23
2023-02-14T09:00:33.133Z,72.18
2023-02-14T09:03:21.803Z,72.28
2023-02-14T09:06:16.203Z,72.08
2023-02-14T09:09:05.139Z,71.98
2023-02-14T09:11:55.537Z,71.98
2023-02-14T09:14:44.695Z,71.77
2023-02-14T09:17:33.591Z,71.84
2023-02-14T09:20:22.838Z,71.70
2023-02-14T09:23:11.458Z,71.38
2023-02-14T09:26:02.866Z,71.41
2023-02-14T09:28:51.596Z,71.05
2023-02-14T09:31:40.311Z,70.93
2023-02-14T09:34:47.609Z,70.98
2023-02-14T09:37:54.499Z,70.89
2023-02-14T09:40:43.167Z,70.92
2023-02-14T09:43:37.883Z,70.96
2023-02-14T09:46:28.245Z,70.90
2023-02-14T09:49:40.268Z,70.85
2023-02-14T09:52:30.553Z,70.68
2023-02-14T09:55:19.870Z,70.33
2023-02-14T09:58:05.602Z,70.33
2023-02-14T10:00:53.531Z,70.07
2023-02-14T10:04:01.193Z,70.03
2023-02-14T10:06:54.657Z,69.85
2023-02-14T10:09:55.621Z,69.89
2023-02-14T10:12:49.828Z,69.69
2023-02-14T10:15:39.728Z,69.75
2023-02-14T10:18:36.350Z,69.44
2023-02-14T10:21:31.011Z,69.15
2023-02-14T10:24:24.693Z,69.03
2023-02-14T10:27:32.160Z,68.99
2023-02-14T10:30:23.325Z,68.82
2023-02-14T10:33:16.846Z,68.71
2023-02-14T10:36:17.055Z,68.62
2023-02-14T10:39:21.180Z,68.39
2023-02-14T10:42:19.913Z,68.20
2023-02-14T10:45:20.283Z,67.91
2023-02-14T10:48:18.966Z,68.05
2023-02-14T10:51:16.634Z,68.24
2023-02-14T10:54:18.809Z,68.10
2023-02-14T10:57:15.026Z,68.19
2023-02-14T11:00:10.180Z,68.09
2023-02-14T11:03:00.926Z,67.99
2023-02-14T11:05:49.962Z,68.05
2023-02-14T11:08:40.216Z,67.98
2023-02-14T11:11:34.517Z,68.22
2023-02-14T11:14:24.642Z,68.16
2023-02-14T11:17:27.963Z,68.19
2023-02-14T11:20:25.615Z,68.28
2023-02-14T11:23:24.096Z,68.11
2023-02-14T11:26:22.357Z,67.93
2023-02-14T11:29:14.600Z,67.94
2023-02-14T11:32:13.222Z,68.02
2023-02-14T11:35:04.361Z,67.96
2023-02-14T11:37:56.557Z,68.11
2023-02-14T11:40:45.346Z,67.96
2023-02-14T11:43:36.453Z,67.91
2023-02-14T11:46:29.493Z,67.65
2023-02-14T11:49:28.179Z,67.63
2023-02-14T11:52:18.913Z,67.23
2023-02-14T11:55:21.975Z,67.12
2023-02-14T11:58:31.111Z,67.02
2023-02-14T12:01:25.286Z,67.25
2023-02-14T12:04:18.372Z,66.97
2023-02-14T12:07:17.955Z,66.96
2023-02-14T12:10:20.220Z,66.92
2023-02-14T12:13:25.236Z,66.91
2023-02-14T12:16:21.976Z,66.63
2023-02-14T12:19:20.899Z,66.70
2023-02-14T12:22:12.701Z,66.63
2023-02-14T12:25:12.047Z,66.58
2023-02-14T12:28:06.800Z,66.67
2023-02-14T12:30:55.509Z,66.53
2023-02-14T12:33:46.535Z,66.26
2023-02-14T12:36:51.866Z,66.34
2023-02-14T12:39:53.775Z,66.46
2023-02-14T12:43:00.151Z,66.33
2023-02-14T12:46:04.421Z,66.39
2023-02-14T12:49:14.439Z,66.34
2023-02-14T12:52:18.414Z,66.32
2023-02-14T12:55:28.060Z,66.28
2023-02-14T12:58:29.837Z,66.21
2023-02-14T13:01:39.034Z,66.01
2023-02-14T13:05:01.211Z,66.15
2023-02-14T13:08:03.547Z,66.32
2023-02-14T13:11:01.060Z,66.40
2023-02-14T13:14:03.617Z,66.19
2023-02-14T13:16:57.881Z,66.25
2023-02-14T13:19:50.178Z,66.46
2023-02-14T13:22:41.430Z,66.56
2023-02-14T13:25:35.450Z,66.39
2023-02-14T13:28:26.116Z,66.54
2023-02-14T13:31:15.508Z,66.47
2023-02-14T13:34:00.089Z,66.43
2023-02-14T13:36:49.147Z,66.43
2023-02-14T13:39:43.460Z,66.27
2023-02-14T13:42:51.223Z,66.37
2023-02-14T13:45:55.884Z,66.09
2023-02-14T13:49:19.422Z,65.82
2023-02-14T13:52:10.313Z,65.78
2023-02-14T13:55:03.050Z,65.83
2023-02-14T13:58:03.947Z,65.76
2023-02-14T14:00:53.793Z,65.72
2023-02-14T14:03:57.206Z,65.67
2023-02-14T14:07:26.264Z,65.67
2023-02-14T14:10:35.293Z,65.25
2023-02-14T14:13:57.759Z,65.14
2023-02-14T14:16:58.073Z,64.81
2023-02-14T14:19:47.259Z,64.78
2023-02-14T14:22:47.076Z,64.97
2023-02-14T14:25:40.313Z,64.96
2023-02-14T14:28:32.750Z,64.86
2023-02-14T14:31:21.648Z,64.72
2023-02-14T14:34:17.565Z,64.60
2023-02-14T14:37:14.785Z,64.74
2023-02-14T14:40:06.283Z,64.64
2023-02-14T14:42:59.585Z,64.55
2023-02-14T14:45:51.949Z,64.55
2023-02-14T14:48:44.111Z,64.70
2023-02-14T14:51:35.272Z,64.91
2023-02-14T14:54:34.754Z,64.85
2023-02-14T14:57:23.405Z,64.89
2023-02-14T15:00:21.460Z,64.89
2023-02-14T15:03:16.593Z,64.76
2023-02-14T15:06:09.400Z,64.95
2023-02-14T15:08:58.007Z,64.86
2023-02-14T15:12:06.087Z,64.83
2023-02-14T15:14:55.361Z,65.00
2023-02-14T15:17:46.514Z,65.04
2023-02-14T15:20:36.204Z,65.18
2023-02-14T15:23:19.565Z,65.16
2023-02-14T15:26:07.577Z,65.16
2023-02-14T15:28:58.760Z,65.28
2023-02-14T15:31:48.296Z,65.39
2023-02-14T15:34:37.261Z,65.52
2023-02-14T15:37:26.711Z,65.57
2023-02-14T15:40:21.980Z,65.78
2023-02-14T15:43:24.502Z,65.90
2023-02-14T15:46:25.562Z,65.82
2023-02-14T15:49:20.043Z,65.62
2023-02-14T15:52:13.981Z,65.55
2023-02-14T15:55:02.641Z,65.52
2023-02-14T15:57:55.897Z,65.61
2023-02-14T16:00:45.059Z,65.53
2023-02-14T16:03:37.866Z,65.43
2023-02-14T16:06:35.662Z,65.32
2023-02-14T16:09:27.444Z,65.21
2023-02-14T16:12:29.836Z,65.13
2023-02-14T16:15:21.590Z,65.01
2023-02-14T16:18:04.031Z,64.94
2023-02-14T16:20:53.441Z,64.72
2023-02-14T16:23:43.926Z,64.84
2023-02-14T16:26:33.455Z,64.87
2023-02-14T16:29:22.189Z,64.92
2023-02-14T16:32:17.728Z,65.03
2023-02-14T16:35:10.156Z,65.06
2023-02-14T16:37:51.692Z,64.95
2023-02-14T16:40:43.898Z,65.14
2023-02-14T16:43:33.171Z,65.09
2023-02-14T16:46:23.606Z,64.96
2023-02-14T16:49:12.695Z,65.01
2023-02-14T16:52:01.452Z,64.93
2023-02-14T16:54:50.196Z,65.03
2023-02-14T16:57:43.668Z,65.15
2023-02-14T17:00:32.308Z,65.20
2023-02-14T17:03:21.343Z,65.20
2023-02-14T17:06:12.738Z,65.23
2023-02-14T17:09:06.528Z,65.29
2023-02-14T17:11:58.018Z,65.35
2023-02-14T17:14:51.132Z,65.40
2023-02-14T17:17:39.891Z,65.58
2023-02-14T17:20:30.053Z,65.69
2023-02-14T17:23:19.563Z,66.03
2023-02-14T17:26:08.677Z,66.31
2023-02-14T17:28:57.568Z,66.33
2023-02-14T17:31:46.266Z,66.24
2023-02-14T17:34:34.936Z,66.33
2023-02-14T17:37:23.872Z,66.27
2023-02-14T17:40:14.316Z,66.00
2023-02-14T17:42:48.318Z,65.90
2023-02-14T17:45:37.084Z,65.93
2023-02-14T17:48:26.404Z,65.85
2023-02-14T17:51:16.647Z,65.73
2023-02-14T17:53:54.135Z,65.84
2023-02-14T17:56:42.765Z,65.82
2023-02-14T17:59:32.144Z,65.58
2023-02-14T18:02:20.704Z,65.63
2023-02-14T18:05:09.295Z,65.41
2023-02-14T18:07:58.119Z,65.31
2023-02-14T18:10:46.651Z,65.30
2023-02-14T18:13:36.325Z,65.07
2023-02-14T18:16:25.280Z,65.15
2023-02-14T18:18:54.489Z,65.14
2023-02-14T18:21:34.985Z,65.06
2023-02-14T18:24:23.898Z,65.11
2023-02-14T18:27:15.271Z,65.14
2023-02-14T18:30:04.908Z,65.15
2023-02-14T18:32:53.600Z,65.33
2023-02-14T18:35:42.285Z,65.41
2023-02-14T18:38:30.977Z,65.42
2023-02-14T18:41:20.537Z,65.42
2023-02-14T18:43:59.880Z,65.46
2023-02-14T18:46:48.422Z,65.41
2023-02-14T18:49:37.193Z,65.35
2023-02-14T18:52:26.142Z,65.54
2023-02-14T18:55:15.395Z,65.58
2023-02-14T18:58:07.542Z,65.41
2023-02-14T19:00:57.174Z,65.56
2023-02-14T19:03:46.232Z,65.62
2023-02-14T19:06:37.408Z,65.70
2023-02-14T19:09:27.499Z,65.82
2023-02-14T19:12:16.106Z,65.80
2023-02-14T19:15:05.959Z,65.79
2023-02-14T19:17:55.308Z,65.75
2023-02-14T19:20:44.263Z,65.68
2023-02-14T19:23:16.651Z,65.85
2023-02-14T19:26:12.995Z,65.97
2023-02-14T19:29:04.082Z,65.90
2023-02-14T19:31:54.602Z,65.91
2023-02-14T19:34:27.221Z,65.81
2023-02-14T19:37:16.737Z,65.78
2023-02-14T19:40:09.684Z,65.95
2023-02-14T19:42:58.920Z,65.76
2023-02-14T19:45:47.687Z,65.66
2023-02-14T19:48:36.429Z,65.92
2023-02-14T19:51:27.313Z,65.67
2023-02-14T19:54:15.894Z,65.47
2023-02-14T19:57:04.789Z,65.55
2023-02-14T19:59:53.739Z,65.48
2023-02-14T20:02:47.384Z,65.81
2023-02-14T20:05:28.021Z,66.02
2023-02-14T20:08:17.492Z,65.94
2023-02-14T20:10:49.176Z,65.80
2023-02-14T20:13:37.754Z,65.85
2023-02-14T20:16:28.063Z,65.92
2023-02-14T20:19:16.049Z,66.11
2023-02-14T20:22:07.604Z,66.28
2023-02-14T20:24:56.198Z,66.05
2023-02-14T20:27:45.850Z,66.20
2023-02-14T20:30:34.758Z,66.41
2023-02-14T20:33:23.576Z,66.73
2023-02-14T20:36:12.557Z,66.73
2023-02-14T20:39:04.172Z,66.63
2023-02-14T20:41:53.439Z,66.91
2023-02-14T20:44:24.576Z,66.75
2023-02-14T20:47:13.655Z,66.88
2023-02-14T20:50:03.316Z,66.79
2023-02-14T20:52:51.931Z,66.78
2023-02-14T20:55:43.793Z,66.79
2023-02-14T20:58:32.891Z,66.84
2023-02-14T21:01:23.405Z,67.01
2023-02-14T21:04:13.225Z,67.09
2023-02-14T21:07:22.403Z,67.07
2023-02-14T21:10:13.752Z,67.07
2023-02-14T21:12:52.424Z,66.93
2023-02-14T21:15:41.195Z,66.94
2023-02-14T21:18:30.539Z,67.02
2023-02-14T21:21:21.768Z,66.99
2023-02-14T21:24:12.365Z,66.45
2023-02-14T21:27:01.055Z,66.15
2023-02-14T21:29:52.284Z,66.20
2023-02-14T21:32:40.926Z,66.35
2023-02-14T21:35:29.718Z,66.42
2023-02-14T21:38:18.329Z,66.34
2023-02-14T21:41:09.386Z,66.44
2023-02-14T21:43:59.888Z,66.46
2023-02-14T21:46:48.518Z,66.30
2023-02-14T21:49:55.192Z,66.39
2023-02-14T21:52:43.892Z,66.51
2023-02-14T21:55:32.660Z,66.66
2023-02-14T21:58:21.203Z,66.51
2023-02-14T22:01:15.860Z,66.42
2023-02-14T22:04:08.259Z,66.46
2023-02-14T22:06:56.980Z,66.63
2023-02-14T22:09:45.608Z,66.90
2023-02-14T22:12:34.155Z,66.91
2023-02-14T22:15:22.899Z,66.82
2023-02-14T22:18:11.587Z,66.55
2023-02-14T22:21:02.069Z,66.41
2023-02-14T22:23:51.173Z,66.47
2023-02-14T22:26:40.304Z,66.66
2023-02-14T22:29:28.889Z,66.83
2023-02-14T22:32:17.578Z,66.76
2023-02-14T22:35:07.496Z,66.87
2023-02-14T22:37:56.484Z,67.11
2023-02-14T22:40:45.479Z,67.17
2023-02-14T22:43:34.544Z,67.12
2023-02-14T22:46:25.406Z,67.02
2023-02-14T22:49:14.252Z,66.77
2023-02-14T22:52:02.902Z,67.05
2023-02-14T22:54:53.378Z,67.26
2023-02-14T22:57:42.213Z,67.08
2023-02-14T23:00:30.830Z,67.23
2023-02-14T23:03:19.411Z,67.14
2023-02-14T23:06:08.071Z,67.17
2023-02-14T23:08:56.966Z,66.95
2023-02-14T23:11:47.179Z,67.04
2023-02-14T23:14:54.524Z,66.99
2023-02-14T23:18:01.535Z,66.85
2023-02-14T23:21:11.092Z,66.84
2023-02-14T23:23:59.673Z,66.89
2023-02-14T23:26:30.944Z,66.88
2023-02-14T23:29:19.498Z,66.74
2023-02-14T23:32:09.068Z,66.94
2023-02-14T23:34:58.528Z,67.14
2023-02-14T23:37:47.256Z,67.31
2023-02-14T23:40:50.799Z,67.22
2023-02-14T23:43:39.388Z,67.22
2023-02-14T23:46:27.983Z,67.10
2023-02-14T23:49:17.388Z,67.42
2023-02-14T23:52:07.436Z,67.54
2023-02-14T23:54:55.973Z,67.83
2023-02-14T23:57:44.865Z,67.86
